sensor_id;sensor_type;location;lat;lon;timestamp;P1;durP1;ratioP1;P2;durP2;ratioP2
42096;SDS011;27754;45.414;11.084;2024-03-02T00:00:22;9.45;;;3.05;;
42096;SDS011;27754;45.414;11.084;2024-03-02T00:02:51;12.73;;;3.28;;
42096;SDS011;27754;45.414;11.084;2024-03-02T00:05:19;9.95;;;3.45;;
42096;SDS011;27754;45.414;11.084;2024-03-02T00:07:54;11.65;;;2.97;;
42096;SDS011;27754;45.414;11.084;2024-03-02T00:10:26;7.20;;;1.90;;
42096;SDS011;27754;45.414;11.084;2024-03-02T00:12:58;11.73;;;2.80;;
42096;SDS011;27754;45.414;11.084;2024-03-02T00:18:16;9.30;;;3.28;;
42096;SDS011;27754;45.414;11.084;2024-03-02T00:20:46;12.63;;;3.03;;
42096;SDS011;27754;45.414;11.084;2024-03-02T00:23:15;8.30;;;2.35;;
42096;SDS011;27754;45.414;11.084;2024-03-02T00:25:44;12.15;;;2.30;;
42096;SDS011;27754;45.414;11.084;2024-03-02T00:28:34;9.25;;;3.10;;
42096;SDS011;27754;45.414;11.084;2024-03-02T00:33:41;11.77;;;2.42;;
42096;SDS011;27754;45.414;11.084;2024-03-02T00:36:17;14.77;;;3.13;;
42096;SDS011;27754;45.414;11.084;2024-03-02T00:38:53;13.30;;;2.45;;
42096;SDS011;27754;45.414;11.084;2024-03-02T00:41:25;6.50;;;2.03;;
42096;SDS011;27754;45.414;11.084;2024-03-02T00:46:26;8.93;;;2.20;;
42096;SDS011;27754;45.414;11.084;2024-03-02T00:48:57;10.32;;;2.20;;
42096;SDS011;27754;45.414;11.084;2024-03-02T00:51:27;5.93;;;1.70;;
42096;SDS011;27754;45.414;11.084;2024-03-02T00:53:58;9.25;;;3.13;;
42096;SDS011;27754;45.414;11.084;2024-03-02T00:56:26;7.80;;;2.25;;
42096;SDS011;27754;45.414;11.084;2024-03-02T00:58:53;10.98;;;2.33;;
42096;SDS011;27754;45.414;11.084;2024-03-02T01:01:20;11.98;;;2.35;;
42096;SDS011;27754;45.414;11.084;2024-03-02T01:03:48;9.13;;;2.58;;
42096;SDS011;27754;45.414;11.084;2024-03-02T01:06:16;9.88;;;2.20;;
42096;SDS011;27754;45.414;11.084;2024-03-02T01:08:43;7.00;;;1.95;;
42096;SDS011;27754;45.414;11.084;2024-03-02T01:11:10;8.73;;;2.30;;
42096;SDS011;27754;45.414;11.084;2024-03-02T01:13:37;9.48;;;1.88;;
42096;SDS011;27754;45.414;11.084;2024-03-02T01:16:04;6.63;;;1.83;;
42096;SDS011;27754;45.414;11.084;2024-03-02T01:18:31;5.22;;;1.70;;
42096;SDS011;27754;45.414;11.084;2024-03-02T01:20:58;7.78;;;2.15;;
42096;SDS011;27754;45.414;11.084;2024-03-02T01:23:25;9.98;;;1.88;;
42096;SDS011;27754;45.414;11.084;2024-03-02T01:25:52;11.88;;;3.10;;
42096;SDS011;27754;45.414;11.084;2024-03-02T01:28:19;7.35;;;2.47;;
42096;SDS011;27754;45.414;11.084;2024-03-02T01:30:47;5.82;;;1.52;;
42096;SDS011;27754;45.414;11.084;2024-03-02T01:33:15;9.60;;;1.85;;
42096;SDS011;27754;45.414;11.084;2024-03-02T01:35:46;10.60;;;2.53;;
42096;SDS011;27754;45.414;11.084;2024-03-02T01:38:13;7.80;;;1.80;;
42096;SDS011;27754;45.414;11.084;2024-03-02T01:40:41;7.97;;;2.42;;
42096;SDS011;27754;45.414;11.084;2024-03-02T01:43:08;10.07;;;2.03;;
42096;SDS011;27754;45.414;11.084;2024-03-02T01:45:35;3.53;;;1.80;;
42096;SDS011;27754;45.414;11.084;2024-03-02T01:48:04;5.25;;;1.83;;
42096;SDS011;27754;45.414;11.084;2024-03-02T01:50:33;5.38;;;2.33;;
42096;SDS011;27754;45.414;11.084;2024-03-02T01:53:01;7.55;;;1.73;;
42096;SDS011;27754;45.414;11.084;2024-03-02T01:55:29;5.25;;;1.58;;
42096;SDS011;27754;45.414;11.084;2024-03-02T01:57:57;6.00;;;1.80;;
42096;SDS011;27754;45.414;11.084;2024-03-02T02:00:25;11.02;;;1.92;;
42096;SDS011;27754;45.414;11.084;2024-03-02T02:02:53;4.07;;;1.40;;
42096;SDS011;27754;45.414;11.084;2024-03-02T02:05:21;12.20;;;2.03;;
42096;SDS011;27754;45.414;11.084;2024-03-02T02:07:49;9.25;;;2.13;;
42096;SDS011;27754;45.414;11.084;2024-03-02T02:10:16;7.03;;;1.67;;
42096;SDS011;27754;45.414;11.084;2024-03-02T02:12:43;8.15;;;2.72;;
42096;SDS011;27754;45.414;11.084;2024-03-02T02:15:26;9.95;;;2.67;;
42096;SDS011;27754;45.414;11.084;2024-03-02T02:17:54;11.73;;;2.33;;
42096;SDS011;27754;45.414;11.084;2024-03-02T02:20:23;7.28;;;2.00;;
42096;SDS011;27754;45.414;11.084;2024-03-02T02:23:03;8.18;;;1.95;;
42096;SDS011;27754;45.414;11.084;2024-03-02T02:25:32;10.45;;;2.30;;
42096;SDS011;27754;45.414;11.084;2024-03-02T02:27:59;6.28;;;1.90;;
42096;SDS011;27754;45.414;11.084;2024-03-02T02:30:27;7.22;;;1.73;;
42096;SDS011;27754;45.414;11.084;2024-03-02T02:32:56;5.32;;;1.67;;
42096;SDS011;27754;45.414;11.084;2024-03-02T02:35:23;8.77;;;2.13;;
42096;SDS011;27754;45.414;11.084;2024-03-02T02:37:51;4.50;;;1.65;;
42096;SDS011;27754;45.414;11.084;2024-03-02T02:40:20;6.70;;;1.98;;
42096;SDS011;27754;45.414;11.084;2024-03-02T02:42:47;8.52;;;2.42;;
42096;SDS011;27754;45.414;11.084;2024-03-02T02:45:14;9.02;;;2.00;;
42096;SDS011;27754;45.414;11.084;2024-03-02T02:47:43;7.90;;;2.00;;
42096;SDS011;27754;45.414;11.084;2024-03-02T02:50:11;7.75;;;2.03;;
42096;SDS011;27754;45.414;11.084;2024-03-02T02:52:40;7.95;;;1.58;;
42096;SDS011;27754;45.414;11.084;2024-03-02T02:55:08;8.30;;;2.38;;
42096;SDS011;27754;45.414;11.084;2024-03-02T02:57:38;7.13;;;2.00;;
42096;SDS011;27754;45.414;11.084;2024-03-02T03:00:10;11.65;;;2.47;;
42096;SDS011;27754;45.414;11.084;2024-03-02T03:02:47;14.20;;;2.05;;
42096;SDS011;27754;45.414;11.084;2024-03-02T03:05:17;9.73;;;1.75;;
42096;SDS011;27754;45.414;11.084;2024-03-02T03:07:44;8.95;;;2.33;;
42096;SDS011;27754;45.414;11.084;2024-03-02T03:10:12;7.65;;;2.00;;
42096;SDS011;27754;45.414;11.084;2024-03-02T03:12:40;8.63;;;1.70;;
42096;SDS011;27754;45.414;11.084;2024-03-02T03:15:10;8.27;;;1.67;;
42096;SDS011;27754;45.414;11.084;2024-03-02T03:17:38;6.70;;;1.63;;
42096;SDS011;27754;45.414;11.084;2024-03-02T03:20:05;5.47;;;1.60;;
42096;SDS011;27754;45.414;11.084;2024-03-02T03:22:37;6.47;;;1.88;;
42096;SDS011;27754;45.414;11.084;2024-03-02T03:25:05;7.25;;;1.55;;
42096;SDS011;27754;45.414;11.084;2024-03-02T03:27:35;8.95;;;1.60;;
42096;SDS011;27754;45.414;11.084;2024-03-02T03:30:02;7.00;;;1.80;;
42096;SDS011;27754;45.414;11.084;2024-03-02T03:32:29;10.60;;;1.80;;
42096;SDS011;27754;45.414;11.084;2024-03-02T03:34:56;9.43;;;1.77;;
42096;SDS011;27754;45.414;11.084;2024-03-02T03:37:23;7.18;;;1.83;;
42096;SDS011;27754;45.414;11.084;2024-03-02T03:39:53;11.13;;;2.30;;
42096;SDS011;27754;45.414;11.084;2024-03-02T03:42:20;5.72;;;1.90;;
42096;SDS011;27754;45.414;11.084;2024-03-02T03:44:47;8.07;;;1.92;;
42096;SDS011;27754;45.414;11.084;2024-03-02T03:47:14;9.50;;;2.22;;
42096;SDS011;27754;45.414;11.084;2024-03-02T03:49:41;3.72;;;1.90;;
42096;SDS011;27754;45.414;11.084;2024-03-02T03:52:08;8.55;;;1.73;;
42096;SDS011;27754;45.414;11.084;2024-03-02T03:54:35;11.27;;;2.58;;
42096;SDS011;27754;45.414;11.084;2024-03-02T03:57:04;7.88;;;1.60;;
42096;SDS011;27754;45.414;11.084;2024-03-02T03:59:32;9.38;;;2.60;;
42096;SDS011;27754;45.414;11.084;2024-03-02T04:01:59;7.80;;;1.63;;
42096;SDS011;27754;45.414;11.084;2024-03-02T04:04:26;9.63;;;2.15;;
42096;SDS011;27754;45.414;11.084;2024-03-02T04:06:53;10.30;;;2.35;;
42096;SDS011;27754;45.414;11.084;2024-03-02T04:09:21;5.70;;;1.73;;
42096;SDS011;27754;45.414;11.084;2024-03-02T04:11:48;10.43;;;2.00;;
42096;SDS011;27754;45.414;11.084;2024-03-02T04:14:15;10.25;;;2.10;;
42096;SDS011;27754;45.414;11.084;2024-03-02T04:16:42;5.53;;;1.77;;
42096;SDS011;27754;45.414;11.084;2024-03-02T04:19:08;5.68;;;2.10;;
42096;SDS011;27754;45.414;11.084;2024-03-02T04:21:35;4.90;;;1.83;;
42096;SDS011;27754;45.414;11.084;2024-03-02T04:24:03;5.70;;;1.70;;
42096;SDS011;27754;45.414;11.084;2024-03-02T04:26:30;9.75;;;2.05;;
42096;SDS011;27754;45.414;11.084;2024-03-02T04:28:57;6.63;;;2.35;;
42096;SDS011;27754;45.414;11.084;2024-03-02T04:31:24;9.18;;;1.95;;
42096;SDS011;27754;45.414;11.084;2024-03-02T04:33:51;7.32;;;1.83;;
42096;SDS011;27754;45.414;11.084;2024-03-02T04:36:18;8.48;;;2.53;;
42096;SDS011;27754;45.414;11.084;2024-03-02T04:38:46;13.25;;;2.55;;
42096;SDS011;27754;45.414;11.084;2024-03-02T04:41:12;8.63;;;2.80;;
42096;SDS011;27754;45.414;11.084;2024-03-02T04:43:40;7.55;;;2.38;;
42096;SDS011;27754;45.414;11.084;2024-03-02T04:46:07;5.63;;;2.63;;
42096;SDS011;27754;45.414;11.084;2024-03-02T04:48:34;9.57;;;2.80;;
42096;SDS011;27754;45.414;11.084;2024-03-02T04:51:01;11.55;;;2.25;;
42096;SDS011;27754;45.414;11.084;2024-03-02T04:53:28;14.73;;;3.72;;
42096;SDS011;27754;45.414;11.084;2024-03-02T04:55:55;7.47;;;2.25;;
42096;SDS011;27754;45.414;11.084;2024-03-02T04:58:22;9.32;;;2.58;;
42096;SDS011;27754;45.414;11.084;2024-03-02T05:00:49;8.52;;;3.25;;
42096;SDS011;27754;45.414;11.084;2024-03-02T05:03:16;8.57;;;2.33;;
42096;SDS011;27754;45.414;11.084;2024-03-02T05:05:43;12.38;;;2.40;;
42096;SDS011;27754;45.414;11.084;2024-03-02T05:08:10;8.07;;;2.20;;
42096;SDS011;27754;45.414;11.084;2024-03-02T05:10:38;6.80;;;2.00;;
42096;SDS011;27754;45.414;11.084;2024-03-02T05:13:05;7.30;;;2.38;;
42096;SDS011;27754;45.414;11.084;2024-03-02T05:15:32;8.18;;;2.15;;
42096;SDS011;27754;45.414;11.084;2024-03-02T05:17:59;7.43;;;2.33;;
42096;SDS011;27754;45.414;11.084;2024-03-02T05:20:29;5.40;;;1.85;;
42096;SDS011;27754;45.414;11.084;2024-03-02T05:22:56;5.13;;;1.95;;
42096;SDS011;27754;45.414;11.084;2024-03-02T05:25:23;12.85;;;2.30;;
42096;SDS011;27754;45.414;11.084;2024-03-02T05:27:50;6.18;;;1.98;;
42096;SDS011;27754;45.414;11.084;2024-03-02T05:30:17;9.30;;;2.25;;
42096;SDS011;27754;45.414;11.084;2024-03-02T05:32:44;5.78;;;1.83;;
42096;SDS011;27754;45.414;11.084;2024-03-02T05:35:11;10.27;;;2.35;;
42096;SDS011;27754;45.414;11.084;2024-03-02T05:37:39;8.88;;;2.20;;
42096;SDS011;27754;45.414;11.084;2024-03-02T05:40:06;8.85;;;2.35;;
42096;SDS011;27754;45.414;11.084;2024-03-02T05:42:34;4.88;;;1.67;;
42096;SDS011;27754;45.414;11.084;2024-03-02T05:45:01;4.85;;;1.40;;
42096;SDS011;27754;45.414;11.084;2024-03-02T05:47:28;4.50;;;1.80;;
42096;SDS011;27754;45.414;11.084;2024-03-02T05:49:55;5.07;;;1.83;;
42096;SDS011;27754;45.414;11.084;2024-03-02T05:52:22;9.45;;;2.08;;
42096;SDS011;27754;45.414;11.084;2024-03-02T05:54:49;5.82;;;1.95;;
42096;SDS011;27754;45.414;11.084;2024-03-02T05:57:16;6.22;;;1.73;;
42096;SDS011;27754;45.414;11.084;2024-03-02T05:59:53;7.47;;;2.10;;
42096;SDS011;27754;45.414;11.084;2024-03-02T06:02:20;10.50;;;2.55;;
42096;SDS011;27754;45.414;11.084;2024-03-02T06:04:47;5.72;;;2.05;;
42096;SDS011;27754;45.414;11.084;2024-03-02T06:07:14;4.45;;;2.00;;
42096;SDS011;27754;45.414;11.084;2024-03-02T06:09:41;5.35;;;1.60;;
42096;SDS011;27754;45.414;11.084;2024-03-02T06:12:08;6.65;;;1.70;;
42096;SDS011;27754;45.414;11.084;2024-03-02T06:14:35;5.25;;;1.42;;
42096;SDS011;27754;45.414;11.084;2024-03-02T06:17:02;8.52;;;1.48;;
42096;SDS011;27754;45.414;11.084;2024-03-02T06:19:29;6.43;;;2.28;;
42096;SDS011;27754;45.414;11.084;2024-03-02T06:21:56;7.28;;;1.60;;
42096;SDS011;27754;45.414;11.084;2024-03-02T06:24:23;6.07;;;1.90;;
42096;SDS011;27754;45.414;11.084;2024-03-02T06:26:52;6.75;;;1.50;;
42096;SDS011;27754;45.414;11.084;2024-03-02T06:29:19;4.45;;;1.70;;
42096;SDS011;27754;45.414;11.084;2024-03-02T06:31:46;5.18;;;1.67;;
42096;SDS011;27754;45.414;11.084;2024-03-02T06:34:17;4.60;;;1.60;;
42096;SDS011;27754;45.414;11.084;2024-03-02T06:36:43;7.93;;;1.77;;
42096;SDS011;27754;45.414;11.084;2024-03-02T06:39:11;6.75;;;2.08;;
42096;SDS011;27754;45.414;11.084;2024-03-02T06:41:38;4.95;;;1.83;;
42096;SDS011;27754;45.414;11.084;2024-03-02T06:44:06;7.78;;;1.85;;
42096;SDS011;27754;45.414;11.084;2024-03-02T06:46:32;6.45;;;2.05;;
42096;SDS011;27754;45.414;11.084;2024-03-02T06:48:59;7.00;;;2.20;;
42096;SDS011;27754;45.414;11.084;2024-03-02T06:51:28;6.10;;;1.85;;
42096;SDS011;27754;45.414;11.084;2024-03-02T06:53:55;9.25;;;1.98;;
42096;SDS011;27754;45.414;11.084;2024-03-02T06:56:22;4.85;;;2.17;;
42096;SDS011;27754;45.414;11.084;2024-03-02T06:58:49;4.40;;;2.10;;
42096;SDS011;27754;45.414;11.084;2024-03-02T07:01:16;5.43;;;1.85;;
42096;SDS011;27754;45.414;11.084;2024-03-02T07:03:43;8.95;;;2.05;;
42096;SDS011;27754;45.414;11.084;2024-03-02T07:06:11;7.60;;;2.25;;
42096;SDS011;27754;45.414;11.084;2024-03-02T07:08:38;5.90;;;2.40;;
42096;SDS011;27754;45.414;11.084;2024-03-02T07:11:05;8.45;;;2.28;;
42096;SDS011;27754;45.414;11.084;2024-03-02T07:13:32;9.75;;;2.20;;
42096;SDS011;27754;45.414;11.084;2024-03-02T07:15:59;7.75;;;1.90;;
42096;SDS011;27754;45.414;11.084;2024-03-02T07:18:31;7.50;;;2.22;;
42096;SDS011;27754;45.414;11.084;2024-03-02T07:20:59;7.20;;;2.78;;
42096;SDS011;27754;45.414;11.084;2024-03-02T07:23:27;10.57;;;1.80;;
42096;SDS011;27754;45.414;11.084;2024-03-02T07:25:54;4.82;;;1.70;;
42096;SDS011;27754;45.414;11.084;2024-03-02T07:28:25;4.90;;;1.90;;
42096;SDS011;27754;45.414;11.084;2024-03-02T07:30:59;7.95;;;2.60;;
42096;SDS011;27754;45.414;11.084;2024-03-02T07:33:27;8.80;;;2.45;;
42096;SDS011;27754;45.414;11.084;2024-03-02T07:35:55;7.65;;;2.00;;
42096;SDS011;27754;45.414;11.084;2024-03-02T07:38:22;5.07;;;1.65;;
42096;SDS011;27754;45.414;11.084;2024-03-02T07:40:49;6.10;;;2.30;;
42096;SDS011;27754;45.414;11.084;2024-03-02T07:43:17;7.72;;;1.65;;
42096;SDS011;27754;45.414;11.084;2024-03-02T07:45:45;4.03;;;1.27;;
42096;SDS011;27754;45.414;11.084;2024-03-02T07:48:13;5.55;;;2.20;;
42096;SDS011;27754;45.414;11.084;2024-03-02T07:50:41;9.05;;;1.77;;
42096;SDS011;27754;45.414;11.084;2024-03-02T07:53:09;5.55;;;1.45;;
42096;SDS011;27754;45.414;11.084;2024-03-02T07:55:36;6.90;;;1.70;;
42096;SDS011;27754;45.414;11.084;2024-03-02T07:58:03;9.57;;;2.35;;
42096;SDS011;27754;45.414;11.084;2024-03-02T08:00:30;5.15;;;2.38;;
42096;SDS011;27754;45.414;11.084;2024-03-02T08:02:57;6.43;;;1.98;;
42096;SDS011;27754;45.414;11.084;2024-03-02T08:05:24;7.22;;;1.80;;
42096;SDS011;27754;45.414;11.084;2024-03-02T08:07:51;8.70;;;2.75;;
42096;SDS011;27754;45.414;11.084;2024-03-02T08:10:19;5.75;;;1.90;;
42096;SDS011;27754;45.414;11.084;2024-03-02T08:12:47;7.57;;;2.35;;
42096;SDS011;27754;45.414;11.084;2024-03-02T08:15:14;5.85;;;1.98;;
42096;SDS011;27754;45.414;11.084;2024-03-02T08:17:41;4.75;;;1.48;;
42096;SDS011;27754;45.414;11.084;2024-03-02T08:20:11;7.38;;;2.60;;
42096;SDS011;27754;45.414;11.084;2024-03-02T08:22:39;3.88;;;1.60;;
42096;SDS011;27754;45.414;11.084;2024-03-02T08:25:06;8.80;;;2.00;;
42096;SDS011;27754;45.414;11.084;2024-03-02T08:27:34;5.32;;;1.50;;
42096;SDS011;27754;45.414;11.084;2024-03-02T08:30:02;4.47;;;2.03;;
42096;SDS011;27754;45.414;11.084;2024-03-02T08:32:33;7.57;;;2.13;;
42096;SDS011;27754;45.414;11.084;2024-03-02T08:35:00;4.85;;;1.85;;
42096;SDS011;27754;45.414;11.084;2024-03-02T08:37:27;4.40;;;1.70;;
42096;SDS011;27754;45.414;11.084;2024-03-02T08:39:54;6.28;;;1.60;;
42096;SDS011;27754;45.414;11.084;2024-03-02T08:42:21;5.35;;;1.90;;
42096;SDS011;27754;45.414;11.084;2024-03-02T08:44:49;4.90;;;2.20;;
42096;SDS011;27754;45.414;11.084;2024-03-02T08:47:16;4.93;;;2.10;;
42096;SDS011;27754;45.414;11.084;2024-03-02T08:49:43;5.15;;;1.95;;
42096;SDS011;27754;45.414;11.084;2024-03-02T08:52:10;6.43;;;2.70;;
42096;SDS011;27754;45.414;11.084;2024-03-02T08:54:37;7.30;;;2.20;;
42096;SDS011;27754;45.414;11.084;2024-03-02T08:57:05;8.88;;;2.10;;
42096;SDS011;27754;45.414;11.084;2024-03-02T08:59:33;6.10;;;1.38;;
42096;SDS011;27754;45.414;11.084;2024-03-02T09:02:00;6.20;;;1.63;;
42096;SDS011;27754;45.414;11.084;2024-03-02T09:04:28;5.15;;;2.03;;
42096;SDS011;27754;45.414;11.084;2024-03-02T09:07:00;8.60;;;2.00;;
42096;SDS011;27754;45.414;11.084;2024-03-02T09:09:27;9.38;;;2.40;;
42096;SDS011;27754;45.414;11.084;2024-03-02T09:11:54;4.40;;;2.22;;
42096;SDS011;27754;45.414;11.084;2024-03-02T09:14:24;4.78;;;2.38;;
42096;SDS011;27754;45.414;11.084;2024-03-02T09:16:51;7.00;;;2.50;;
42096;SDS011;27754;45.414;11.084;2024-03-02T09:19:18;5.70;;;1.90;;
42096;SDS011;27754;45.414;11.084;2024-03-02T09:21:45;8.02;;;2.30;;
42096;SDS011;27754;45.414;11.084;2024-03-02T09:24:12;6.88;;;2.80;;
42096;SDS011;27754;45.414;11.084;2024-03-02T09:26:43;9.48;;;3.08;;
42096;SDS011;27754;45.414;11.084;2024-03-02T09:29:11;7.00;;;2.80;;
42096;SDS011;27754;45.414;11.084;2024-03-02T09:31:41;3.83;;;2.20;;
42096;SDS011;27754;45.414;11.084;2024-03-02T09:34:08;5.15;;;2.33;;
42096;SDS011;27754;45.414;11.084;2024-03-02T09:36:35;7.82;;;3.08;;
42096;SDS011;27754;45.414;11.084;2024-03-02T09:39:02;6.15;;;2.53;;
42096;SDS011;27754;45.414;11.084;2024-03-02T09:41:30;7.80;;;3.15;;
42096;SDS011;27754;45.414;11.084;2024-03-02T09:43:59;5.68;;;2.28;;
42096;SDS011;27754;45.414;11.084;2024-03-02T09:46:26;3.72;;;2.45;;
42096;SDS011;27754;45.414;11.084;2024-03-02T09:48:54;8.38;;;2.60;;
42096;SDS011;27754;45.414;11.084;2024-03-02T09:51:21;4.63;;;2.20;;
42096;SDS011;27754;45.414;11.084;2024-03-02T09:53:49;5.82;;;2.30;;
42096;SDS011;27754;45.414;11.084;2024-03-02T09:56:16;5.30;;;2.20;;
42096;SDS011;27754;45.414;11.084;2024-03-02T09:58:44;6.35;;;2.45;;
42096;SDS011;27754;45.414;11.084;2024-03-02T10:01:11;12.57;;;2.95;;
42096;SDS011;27754;45.414;11.084;2024-03-02T10:03:39;6.82;;;1.98;;
42096;SDS011;27754;45.414;11.084;2024-03-02T10:06:21;4.82;;;2.10;;
42096;SDS011;27754;45.414;11.084;2024-03-02T10:08:49;6.57;;;2.90;;
42096;SDS011;27754;45.414;11.084;2024-03-02T10:11:30;7.43;;;2.65;;
42096;SDS011;27754;45.414;11.084;2024-03-02T10:16:40;4.63;;;2.22;;
42096;SDS011;27754;45.414;11.084;2024-03-02T10:21:42;8.13;;;2.65;;
42096;SDS011;27754;45.414;11.084;2024-03-02T10:24:09;7.15;;;2.10;;
42096;SDS011;27754;45.414;11.084;2024-03-02T10:26:36;6.50;;;1.88;;
42096;SDS011;27754;45.414;11.084;2024-03-02T10:29:03;6.53;;;2.33;;
42096;SDS011;27754;45.414;11.084;2024-03-02T10:31:30;4.45;;;1.90;;
42096;SDS011;27754;45.414;11.084;2024-03-02T10:33:58;6.28;;;2.40;;
42096;SDS011;27754;45.414;11.084;2024-03-02T10:36:26;5.13;;;2.42;;
42096;SDS011;27754;45.414;11.084;2024-03-02T10:38:53;7.63;;;2.30;;
42096;SDS011;27754;45.414;11.084;2024-03-02T10:41:26;5.63;;;2.05;;
42096;SDS011;27754;45.414;11.084;2024-03-02T10:43:54;6.10;;;2.55;;
42096;SDS011;27754;45.414;11.084;2024-03-02T10:46:27;5.93;;;2.65;;
42096;SDS011;27754;45.414;11.084;2024-03-02T10:48:58;7.88;;;2.25;;
42096;SDS011;27754;45.414;11.084;2024-03-02T10:51:30;3.78;;;1.77;;
42096;SDS011;27754;45.414;11.084;2024-03-02T10:53:58;8.43;;;2.10;;
42096;SDS011;27754;45.414;11.084;2024-03-02T10:56:33;5.25;;;2.10;;
42096;SDS011;27754;45.414;11.084;2024-03-02T10:59:02;6.93;;;2.42;;
42096;SDS011;27754;45.414;11.084;2024-03-02T11:01:36;6.10;;;1.98;;
42096;SDS011;27754;45.414;11.084;2024-03-02T11:04:07;5.78;;;2.20;;
42096;SDS011;27754;45.414;11.084;2024-03-02T11:06:36;5.18;;;2.40;;
42096;SDS011;27754;45.414;11.084;2024-03-02T11:09:06;6.72;;;2.50;;
42096;SDS011;27754;45.414;11.084;2024-03-02T11:11:37;8.48;;;2.67;;
42096;SDS011;27754;45.414;11.084;2024-03-02T11:14:18;7.28;;;2.72;;
42096;SDS011;27754;45.414;11.084;2024-03-02T11:16:50;8.55;;;3.15;;
42096;SDS011;27754;45.414;11.084;2024-03-02T11:19:18;8.80;;;2.97;;
42096;SDS011;27754;45.414;11.084;2024-03-02T11:21:45;8.15;;;3.17;;
42096;SDS011;27754;45.414;11.084;2024-03-02T11:27:05;9.55;;;3.65;;
42096;SDS011;27754;45.414;11.084;2024-03-02T11:32:22;6.15;;;3.40;;
42096;SDS011;27754;45.414;11.084;2024-03-02T11:34:52;11.43;;;4.57;;
42096;SDS011;27754;45.414;11.084;2024-03-02T11:37:19;7.78;;;3.83;;
42096;SDS011;27754;45.414;11.084;2024-03-02T11:39:48;9.75;;;4.00;;
42096;SDS011;27754;45.414;11.084;2024-03-02T11:42:16;6.72;;;3.97;;
42096;SDS011;27754;45.414;11.084;2024-03-02T11:44:45;6.60;;;4.55;;
42096;SDS011;27754;45.414;11.084;2024-03-02T11:47:16;7.60;;;5.00;;
42096;SDS011;27754;45.414;11.084;2024-03-02T11:49:45;10.43;;;5.40;;
42096;SDS011;27754;45.414;11.084;2024-03-02T11:52:15;10.30;;;4.63;;
42096;SDS011;27754;45.414;11.084;2024-03-02T11:54:45;9.70;;;5.10;;
42096;SDS011;27754;45.414;11.084;2024-03-02T11:57:14;11.73;;;5.65;;
42096;SDS011;27754;45.414;11.084;2024-03-02T11:59:42;7.90;;;4.72;;
42096;SDS011;27754;45.414;11.084;2024-03-02T12:02:14;12.00;;;4.28;;
42096;SDS011;27754;45.414;11.084;2024-03-02T12:04:50;8.98;;;4.07;;
42096;SDS011;27754;45.414;11.084;2024-03-02T12:07:18;7.75;;;4.40;;
42096;SDS011;27754;45.414;11.084;2024-03-02T12:09:48;5.40;;;2.92;;
42096;SDS011;27754;45.414;11.084;2024-03-02T12:12:16;5.88;;;3.25;;
42096;SDS011;27754;45.414;11.084;2024-03-02T12:14:54;5.40;;;3.15;;
42096;SDS011;27754;45.414;11.084;2024-03-02T12:17:22;5.30;;;3.30;;
42096;SDS011;27754;45.414;11.084;2024-03-02T12:19:49;5.30;;;3.00;;
42096;SDS011;27754;45.414;11.084;2024-03-02T12:22:16;4.65;;;3.50;;
42096;SDS011;27754;45.414;11.084;2024-03-02T12:24:44;7.65;;;4.30;;
42096;SDS011;27754;45.414;11.084;2024-03-02T12:27:12;7.63;;;3.90;;
42096;SDS011;27754;45.414;11.084;2024-03-02T12:29:41;4.60;;;3.15;;
42096;SDS011;27754;45.414;11.084;2024-03-02T12:32:08;8.27;;;3.55;;
42096;SDS011;27754;45.414;11.084;2024-03-02T12:34:35;7.45;;;3.42;;
42096;SDS011;27754;45.414;11.084;2024-03-02T12:37:05;9.40;;;3.90;;
42096;SDS011;27754;45.414;11.084;2024-03-02T12:39:32;4.72;;;3.22;;
42096;SDS011;27754;45.414;11.084;2024-03-02T12:41:59;6.68;;;3.28;;
42096;SDS011;27754;45.414;11.084;2024-03-02T12:44:28;6.50;;;3.47;;
42096;SDS011;27754;45.414;11.084;2024-03-02T12:46:56;6.03;;;3.28;;
42096;SDS011;27754;45.414;11.084;2024-03-02T12:49:26;5.60;;;2.63;;
42096;SDS011;27754;45.414;11.084;2024-03-02T12:51:55;5.75;;;2.92;;
42096;SDS011;27754;45.414;11.084;2024-03-02T12:54:24;5.20;;;2.70;;
42096;SDS011;27754;45.414;11.084;2024-03-02T12:56:53;5.68;;;2.72;;
42096;SDS011;27754;45.414;11.084;2024-03-02T12:59:21;5.90;;;2.60;;
42096;SDS011;27754;45.414;11.084;2024-03-02T13:01:53;4.75;;;1.88;;
42096;SDS011;27754;45.414;11.084;2024-03-02T13:04:22;2.67;;;1.60;;
42096;SDS011;27754;45.414;11.084;2024-03-02T13:06:52;2.65;;;1.58;;
42096;SDS011;27754;45.414;11.084;2024-03-02T13:09:20;5.15;;;1.65;;
42096;SDS011;27754;45.414;11.084;2024-03-02T13:11:48;4.03;;;2.00;;
42096;SDS011;27754;45.414;11.084;2024-03-02T13:14:15;4.05;;;2.10;;
42096;SDS011;27754;45.414;11.084;2024-03-02T13:16:42;4.47;;;2.45;;
42096;SDS011;27754;45.414;11.084;2024-03-02T13:19:13;3.47;;;2.20;;
42096;SDS011;27754;45.414;11.084;2024-03-02T13:21:41;2.70;;;1.58;;
42096;SDS011;27754;45.414;11.084;2024-03-02T13:24:08;3.15;;;1.50;;
42096;SDS011;27754;45.414;11.084;2024-03-02T13:26:35;3.80;;;1.70;;
42096;SDS011;27754;45.414;11.084;2024-03-02T13:29:02;2.67;;;1.50;;
42096;SDS011;27754;45.414;11.084;2024-03-02T13:31:29;5.20;;;2.22;;
42096;SDS011;27754;45.414;11.084;2024-03-02T13:33:56;4.57;;;2.15;;
42096;SDS011;27754;45.414;11.084;2024-03-02T13:36:23;4.10;;;2.10;;
42096;SDS011;27754;45.414;11.084;2024-03-02T13:38:51;4.05;;;1.75;;
42096;SDS011;27754;45.414;11.084;2024-03-02T13:41:18;4.38;;;2.10;;
42096;SDS011;27754;45.414;11.084;2024-03-02T13:43:46;3.55;;;1.92;;
42096;SDS011;27754;45.414;11.084;2024-03-02T13:46:16;7.13;;;2.22;;
42096;SDS011;27754;45.414;11.084;2024-03-02T13:48:43;3.40;;;2.30;;
42096;SDS011;27754;45.414;11.084;2024-03-02T13:51:10;4.53;;;2.25;;
42096;SDS011;27754;45.414;11.084;2024-03-02T13:53:37;4.78;;;2.47;;
42096;SDS011;27754;45.414;11.084;2024-03-02T13:56:04;3.38;;;2.03;;
42096;SDS011;27754;45.414;11.084;2024-03-02T13:58:33;5.72;;;2.63;;
42096;SDS011;27754;45.414;11.084;2024-03-02T14:01:00;4.80;;;2.40;;
42096;SDS011;27754;45.414;11.084;2024-03-02T14:03:31;5.05;;;2.47;;
42096;SDS011;27754;45.414;11.084;2024-03-02T14:05:58;4.22;;;2.40;;
42096;SDS011;27754;45.414;11.084;2024-03-02T14:08:25;4.65;;;2.47;;
42096;SDS011;27754;45.414;11.084;2024-03-02T14:10:52;5.32;;;2.95;;
42096;SDS011;27754;45.414;11.084;2024-03-02T14:13:20;5.82;;;2.90;;
42096;SDS011;27754;45.414;11.084;2024-03-02T14:15:47;5.32;;;2.47;;
42096;SDS011;27754;45.414;11.084;2024-03-02T14:18:15;6.07;;;2.55;;
42096;SDS011;27754;45.414;11.084;2024-03-02T14:20:42;7.43;;;2.50;;
42096;SDS011;27754;45.414;11.084;2024-03-02T14:23:11;6.32;;;3.20;;
42096;SDS011;27754;45.414;11.084;2024-03-02T14:25:38;5.00;;;3.05;;
42096;SDS011;27754;45.414;11.084;2024-03-02T14:28:05;7.00;;;3.08;;
42096;SDS011;27754;45.414;11.084;2024-03-02T14:30:52;8.95;;;3.95;;
42096;SDS011;27754;45.414;11.084;2024-03-02T14:33:20;7.28;;;3.30;;
42096;SDS011;27754;45.414;11.084;2024-03-02T14:35:47;5.90;;;3.30;;
42096;SDS011;27754;45.414;11.084;2024-03-02T14:38:14;5.32;;;2.83;;
42096;SDS011;27754;45.414;11.084;2024-03-02T14:40:42;4.95;;;2.80;;
42096;SDS011;27754;45.414;11.084;2024-03-02T14:43:09;5.32;;;3.20;;
42096;SDS011;27754;45.414;11.084;2024-03-02T14:45:36;4.95;;;2.95;;
42096;SDS011;27754;45.414;11.084;2024-03-02T14:48:03;4.57;;;2.38;;
42096;SDS011;27754;45.414;11.084;2024-03-02T14:50:30;3.85;;;2.70;;
42096;SDS011;27754;45.414;11.084;2024-03-02T14:52:57;3.47;;;2.63;;
42096;SDS011;27754;45.414;11.084;2024-03-02T14:55:25;3.35;;;2.13;;
42096;SDS011;27754;45.414;11.084;2024-03-02T14:57:52;5.00;;;2.15;;